Weather at Malpensa International Airport

Public forecast

Using degrees Celsius for public forecast. Weather courtesy of forecast.io.

Current aviation weather report (METAR) for Malpensa International Airport

Retrieved 2022/01/22 20:50 UTC (25 minutes ago):

LIMC 222050Z VRB02KT CAVOK 02/M02 Q1025 NOSIG

Aviation forecast (TAF) for Malpensa International Airport

Retrieved 2022/01/22 18:23 UTC (3 hours ago):

TAF LIMC 221700Z 2218/2324 VRB05KT CAVOK BECMG 2318/2320 4000 BR